Time;durP1;ratioP1;P1;durP2;ratioP2;P2;SDS_P1;SDS_P2;PMS_P1;PMS_P2;Temp;Humidity;BMP_temperature;BMP_pressure;BME280_temperature;BME280_humidity;BME280_pressure;Samples;Min_cycle;Max_cycle;Signal;HPM_P1;HPM_P2
2021/10/13 00:01:16;;;;;;;4.13;2.40;;;2.80;99.90;;;;;;5034398;28;20386;-83
2021/10/13 00:03:42;;;;;;;3.80;2.22;;;2.90;99.90;;;;;;5036327;28;20412;-83
2021/10/13 00:06:07;;;;;;;2.55;2.00;;;2.80;99.90;;;;;;5046967;28;20380;-83
2021/10/13 00:08:33;;;;;;;2.92;2.28;;;2.80;99.90;;;;;;5031601;28;20408;-83
2021/10/13 00:10:59;;;;;;;4.83;2.10;;;2.80;99.90;;;;;;5037649;28;20376;-83
2021/10/13 00:13:24;;;;;;;3.10;2.13;;;2.80;99.90;;;;;;5044559;28;20889;-82
2021/10/13 00:15:50;;;;;;;3.67;2.10;;;2.90;99.90;;;;;;5034675;28;20420;-83
2021/10/13 00:18:15;;;;;;;3.65;2.33;;;2.80;99.90;;;;;;5037210;28;20470;-82
2021/10/13 00:20:41;;;;;;;4.43;2.30;;;2.80;99.90;;;;;;5035520;28;20439;-82
2021/10/13 00:23:07;;;;;;;3.67;2.43;;;2.80;99.90;;;;;;5028828;28;20866;-84
2021/10/13 00:25:32;;;;;;;4.43;1.93;;;2.80;99.90;;;;;;5033758;28;20414;-83
2021/10/13 00:27:58;;;;;;;3.60;2.30;;;2.80;99.90;;;;;;5041092;28;20997;-83
2021/10/13 00:30:23;;;;;;;2.95;2.17;;;2.80;99.90;;;;;;5041144;28;20376;-83
2021/10/13 00:32:49;;;;;;;4.47;2.40;;;2.80;99.90;;;;;;5032085;28;20469;-83
2021/10/13 00:35:15;;;;;;;3.07;2.10;;;2.70;99.90;;;;;;5028493;28;20422;-83
2021/10/13 00:37:40;;;;;;;3.43;2.23;;;2.70;99.90;;;;;;5028645;28;21029;-82
2021/10/13 00:40:07;;;;;;;2.45;2.08;;;2.70;99.90;;;;;;5029827;28;20373;-83
2021/10/13 00:42:32;;;;;;;4.77;2.20;;;2.70;99.90;;;;;;5029800;28;20794;-83
2021/10/13 00:44:58;;;;;;;2.87;2.10;;;2.70;99.90;;;;;;5047028;28;20403;-83
2021/10/13 00:47:24;;;;;;;3.43;2.00;;;2.70;99.90;;;;;;5043788;28;20449;-83
2021/10/13 00:49:49;;;;;;;3.53;2.07;;;2.60;99.90;;;;;;5049536;28;20408;-83
2021/10/13 00:52:16;;;;;;;2.75;2.00;;;2.60;99.90;;;;;;5049544;28;20403;-82
2021/10/13 00:54:43;;;;;;;4.70;2.37;;;2.60;99.90;;;;;;5047339;28;20517;-83
2021/10/13 00:57:09;;;;;;;3.75;2.53;;;2.50;99.90;;;;;;5049005;28;20476;-83
2021/10/13 00:59:35;;;;;;;4.35;2.40;;;2.60;99.90;;;;;;5049542;28;20411;-83
2021/10/13 01:02:05;;;;;;;2.58;2.20;;;2.60;99.90;;;;;;5047655;28;20433;-83
2021/10/13 01:05:02;;;;;;;3.33;2.30;;;2.60;99.90;;;;;;5049378;28;20494;-82
2021/10/13 01:07:56;;;;;;;3.47;2.50;;;2.60;99.90;;;;;;5047398;28;20399;-84
2021/10/13 01:10:56;;;;;;;2.90;2.22;;;2.60;99.90;;;;;;5047622;28;20796;-83
2021/10/13 01:14:15;;;;;;;2.65;2.28;;;2.50;99.90;;;;;;5048202;28;20893;-83
2021/10/13 01:17:03;;;;;;;3.38;2.38;;;2.50;99.90;;;;;;5024072;28;20419;-83
2021/10/13 01:19:46;;;;;;;3.67;2.38;;;2.50;99.90;;;;;;5038693;28;20374;-83
2021/10/13 01:22:26;;;;;;;3.05;2.20;;;2.40;99.90;;;;;;5048866;28;20364;-82
2021/10/13 01:25:06;;;;;;;3.38;2.42;;;2.40;99.90;;;;;;5049062;28;20403;-83
2021/10/13 01:27:55;;;;;;;4.70;2.88;;;2.40;99.90;;;;;;5049169;28;20376;-83
2021/10/13 01:30:23;;;;;;;5.65;2.50;;;2.40;99.90;;;;;;5048996;28;20372;-83
2021/10/13 01:33:02;;;;;;;4.90;2.65;;;2.30;99.90;;;;;;5046846;28;20387;-83
2021/10/13 01:35:30;;;;;;;4.07;2.57;;;2.30;99.90;;;;;;5046858;28;20417;-82
2021/10/13 01:38:01;;;;;;;6.03;2.80;;;2.30;99.90;;;;;;5036400;28;20376;-83
2021/10/13 01:40:31;;;;;;;3.80;2.60;;;2.30;99.90;;;;;;5046820;28;20396;-84
2021/10/13 01:42:59;;;;;;;4.00;2.72;;;2.30;99.90;;;;;;5048738;28;20360;-83
2021/10/13 01:45:26;;;;;;;4.68;2.50;;;2.30;99.90;;;;;;5046934;28;21245;-83
2021/10/13 01:47:52;;;;;;;4.05;2.60;;;2.30;99.90;;;;;;5048756;28;20403;-84
2021/10/13 01:50:22;;;;;;;4.07;2.50;;;2.30;99.90;;;;;;5047970;28;20391;-83
2021/10/13 01:52:49;;;;;;;3.83;2.70;;;2.30;99.90;;;;;;5047529;28;20383;-82
2021/10/13 01:55:18;;;;;;;4.78;3.30;;;2.20;99.90;;;;;;5048691;28;20804;-84
2021/10/13 01:57:47;;;;;;;6.40;3.28;;;2.20;99.90;;;;;;5046782;28;20893;-83
2021/10/13 02:00:15;;;;;;;5.37;3.40;;;2.20;99.90;;;;;;5046886;28;20387;-83
2021/10/13 02:02:42;;;;;;;7.05;3.33;;;2.20;99.90;;;;;;5048596;28;20372;-83
2021/10/13 02:05:08;;;;;;;3.83;3.13;;;2.20;99.90;;;;;;5046807;28;20470;-83
2021/10/13 02:07:37;;;;;;;5.10;3.53;;;2.30;99.90;;;;;;5046954;28;20478;-83
2021/10/13 02:10:07;;;;;;;6.07;3.58;;;2.30;99.90;;;;;;5047083;28;20475;-83
2021/10/13 02:12:35;;;;;;;4.40;3.75;;;2.30;99.90;;;;;;5034831;28;20381;-83
2021/10/13 02:15:04;;;;;;;9.55;3.70;;;2.30;99.90;;;;;;5028423;28;20377;-82
2021/10/13 02:17:32;;;;;;;5.00;3.88;;;2.40;99.90;;;;;;5027392;28;20408;-82
2021/10/13 02:19:59;;;;;;;4.35;3.58;;;2.40;99.90;;;;;;5028461;28;20416;-83
2021/10/13 02:22:29;;;;;;;4.40;4.00;;;2.40;99.90;;;;;;5028153;28;20388;-83
2021/10/13 02:24:55;;;;;;;4.70;4.20;;;2.40;99.90;;;;;;5040256;28;20422;-84
2021/10/13 02:27:33;;;;;;;5.78;4.30;;;2.40;99.90;;;;;;5049483;28;20388;-83
2021/10/13 02:29:59;;;;;;;8.38;4.90;;;2.50;99.90;;;;;;5049382;28;20387;-82
2021/10/13 02:32:25;;;;;;;7.13;4.60;;;2.50;99.90;;;;;;5052352;28;20391;-83
2021/10/13 02:34:52;;;;;;;5.63;4.95;;;2.50;99.90;;;;;;5052188;28;20930;-83
2021/10/13 02:37:18;;;;;;;5.88;4.47;;;2.50;99.90;;;;;;5048810;28;20376;-83
2021/10/13 02:39:43;;;;;;;6.50;4.78;;;2.60;99.90;;;;;;5052167;28;20441;-82
2021/10/13 02:42:09;;;;;;;6.05;4.60;;;2.60;99.90;;;;;;5050840;28;20394;-82
2021/10/13 02:44:35;;;;;;;6.65;5.10;;;2.60;99.90;;;;;;5050475;28;20443;-83
2021/10/13 02:47:12;;;;;;;6.82;5.20;;;2.50;99.90;;;;;;5051525;28;20954;-83
2021/10/13 02:49:49;;;;;;;6.88;5.57;;;2.50;99.90;;;;;;5049823;28;20391;-84
2021/10/13 02:52:22;;;;;;;5.55;4.80;;;2.50;99.90;;;;;;5050062;28;20380;-83
2021/10/13 02:54:58;;;;;;;5.70;5.10;;;2.50;99.90;;;;;;5052023;28;20972;-83
2021/10/13 02:57:32;;;;;;;7.18;4.72;;;2.50;99.90;;;;;;5051944;28;20463;-83
2021/10/13 03:00:04;;;;;;;5.60;4.60;;;2.50;99.90;;;;;;5050187;28;20820;-82
2021/10/13 03:02:34;;;;;;;6.13;4.70;;;2.50;99.90;;;;;;5050496;28;20388;-84
2021/10/13 03:05:00;;;;;;;6.88;5.00;;;2.40;99.90;;;;;;5051613;28;20434;-83
2021/10/13 03:07:38;;;;;;;5.78;4.75;;;2.40;99.90;;;;;;5049950;28;20372;-83
2021/10/13 03:10:05;;;;;;;9.38;5.53;;;2.40;99.90;;;;;;5050333;28;20467;-83
2021/10/13 03:12:55;;;;;;;5.60;5.00;;;2.40;99.90;;;;;;5050103;28;20406;-82
2021/10/13 03:15:23;;;;;;;7.67;5.27;;;2.30;99.90;;;;;;5050495;28;20391;-83
2021/10/13 03:17:53;;;;;;;5.13;4.63;;;2.30;99.90;;;;;;5050417;28;20379;-82
2021/10/13 03:20:20;;;;;;;5.70;5.10;;;2.20;99.90;;;;;;5049172;28;20392;-83
2021/10/13 03:22:47;;;;;;;8.50;6.43;;;2.20;99.90;;;;;;5050918;28;20407;-83
2021/10/13 03:25:21;;;;;;;7.80;7.00;;;2.20;99.90;;;;;;5050717;28;20396;-83
2021/10/13 03:27:47;;;;;;;7.53;6.20;;;2.20;99.90;;;;;;5051137;28;20371;-82
2021/10/13 03:30:12;;;;;;;6.88;6.18;;;2.20;99.90;;;;;;5049230;28;20425;-82
2021/10/13 03:32:38;;;;;;;7.63;6.50;;;2.20;99.90;;;;;;5049623;28;20889;-83
2021/10/13 03:35:04;;;;;;;8.70;7.90;;;2.30;99.90;;;;;;5050408;28;20387;-82
2021/10/13 03:37:29;;;;;;;10.82;8.63;;;2.20;99.90;;;;;;5050930;28;20452;-83
2021/10/13 03:39:56;;;;;;;13.75;10.23;;;2.20;99.90;;;;;;5050208;28;20368;-82
2021/10/13 03:42:22;;;;;;;15.13;11.43;;;2.20;99.90;;;;;;5051431;28;20462;-83
2021/10/13 03:44:47;;;;;;;11.98;9.93;;;2.30;99.90;;;;;;5050667;28;20545;-82
2021/10/13 03:47:13;;;;;;;13.47;10.63;;;2.40;99.90;;;;;;5049205;28;20372;-82
2021/10/13 03:49:38;;;;;;;14.03;10.67;;;2.40;99.90;;;;;;5050103;28;20819;-82
2021/10/13 03:52:04;;;;;;;12.05;10.65;;;2.40;99.90;;;;;;5051606;28;20376;-82
2021/10/13 03:54:30;;;;;;;10.85;9.65;;;2.40;99.90;;;;;;5051433;28;20360;-82
2021/10/13 03:56:56;;;;;;;12.18;9.77;;;2.40;99.90;;;;;;5050308;28;20392;-82
2021/10/13 03:59:21;;;;;;;12.38;10.25;;;2.40;99.90;;;;;;5049569;28;20383;-83
2021/10/13 04:01:47;;;;;;;12.20;9.87;;;2.40;99.90;;;;;;5048811;28;20392;-83
2021/10/13 04:04:12;;;;;;;13.17;10.27;;;2.40;99.90;;;;;;5049020;28;20470;-83
2021/10/13 04:06:38;;;;;;;11.73;10.07;;;2.30;99.90;;;;;;5050211;28;20406;-83
2021/10/13 04:09:06;;;;;;;10.00;9.00;;;2.30;99.90;;;;;;5051111;28;20431;-82
2021/10/13 04:11:32;;;;;;;11.73;9.50;;;2.20;99.90;;;;;;5051709;28;20376;-82
2021/10/13 04:13:58;;;;;;;9.50;8.47;;;2.30;99.90;;;;;;5050688;28;20384;-83
2021/10/13 04:16:23;;;;;;;12.50;10.40;;;2.20;99.90;;;;;;5051332;28;20388;-82
2021/10/13 04:18:49;;;;;;;11.23;9.87;;;2.20;99.90;;;;;;5051442;28;21187;-82
2021/10/13 04:21:14;;;;;;;10.77;9.38;;;2.20;99.90;;;;;;5050869;28;20928;-82
2021/10/13 04:23:40;;;;;;;10.80;9.07;;;2.10;99.90;;;;;;5051663;28;20437;-81
2021/10/13 04:26:05;;;;;;;11.67;9.73;;;2.10;99.90;;;;;;5050047;28;20383;-82
2021/10/13 04:28:31;;;;;;;13.20;9.90;;;2.10;99.90;;;;;;5051198;28;20383;-82
2021/10/13 04:30:57;;;;;;;10.55;9.52;;;2.10;99.90;;;;;;5049398;28;20380;-82
2021/10/13 04:33:22;;;;;;;13.02;10.20;;;2.00;99.90;;;;;;5050313;28;20445;-82
2021/10/13 04:35:48;;;;;;;11.63;10.33;;;2.00;99.90;;;;;;5049080;28;20904;-82
2021/10/13 04:38:13;;;;;;;11.23;10.03;;;2.00;99.90;;;;;;5050318;28;20900;-82
2021/10/13 04:40:39;;;;;;;13.97;10.47;;;1.90;99.90;;;;;;5049199;28;20387;-82
2021/10/13 04:43:04;;;;;;;13.20;11.35;;;1.90;99.90;;;;;;5050694;28;20394;-82
2021/10/13 04:45:30;;;;;;;12.05;10.70;;;1.90;99.90;;;;;;5050412;28;20414;-82
2021/10/13 04:47:56;;;;;;;13.00;11.37;;;1.90;99.90;;;;;;5049765;28;20387;-82
2021/10/13 04:50:21;;;;;;;15.53;12.53;;;1.90;99.90;;;;;;5049682;28;20376;-82
2021/10/13 04:52:47;;;;;;;12.23;10.50;;;1.90;99.90;;;;;;5050791;28;20412;-82
2021/10/13 04:55:12;;;;;;;15.32;12.10;;;1.90;99.90;;;;;;5050339;28;20392;-81
2021/10/13 04:57:38;;;;;;;13.35;11.10;;;1.90;99.90;;;;;;5049835;28;20731;-82
2021/10/13 05:00:05;;;;;;;14.00;11.23;;;1.90;99.90;;;;;;5049242;28;20479;-82
2021/10/13 05:02:31;;;;;;;13.90;11.02;;;1.90;99.90;;;;;;5048993;28;20466;-82
2021/10/13 05:04:56;;;;;;;13.30;11.27;;;1.90;99.90;;;;;;5051489;28;20404;-82
2021/10/13 05:07:22;;;;;;;13.40;12.00;;;1.90;99.90;;;;;;5066690;28;20380;-82
2021/10/13 05:09:48;;;;;;;13.07;11.30;;;1.90;99.90;;;;;;5050393;28;20376;-82
2021/10/13 05:12:13;;;;;;;12.97;11.40;;;1.80;99.90;;;;;;5051297;28;20414;-82
2021/10/13 05:14:39;;;;;;;14.43;12.73;;;1.80;99.90;;;;;;5052032;28;20396;-82
2021/10/13 05:17:05;;;;;;;14.30;12.33;;;1.80;99.90;;;;;;5050956;28;20391;-82
2021/10/13 05:19:30;;;;;;;15.43;11.75;;;1.70;99.90;;;;;;5049902;28;20393;-83
2021/10/13 05:21:56;;;;;;;14.43;11.98;;;1.80;99.90;;;;;;5051080;28;20386;-82
2021/10/13 05:24:21;;;;;;;16.35;13.00;;;1.70;99.90;;;;;;5051222;28;20464;-82
2021/10/13 05:26:47;;;;;;;16.43;13.20;;;1.70;99.90;;;;;;5050191;28;20773;-82
2021/10/13 05:29:13;;;;;;;14.57;11.97;;;1.70;99.90;;;;;;5050659;28;20452;-82
2021/10/13 05:31:38;;;;;;;14.75;12.65;;;1.80;99.90;;;;;;5049563;28;20394;-82
2021/10/13 05:34:04;;;;;;;14.27;11.82;;;1.70;99.90;;;;;;5048691;28;20368;-82
2021/10/13 05:36:29;;;;;;;13.23;11.57;;;1.70;99.90;;;;;;5049645;28;20395;-82
2021/10/13 05:38:56;;;;;;;13.23;11.93;;;1.70;99.90;;;;;;5049745;28;20450;-82
2021/10/13 05:41:21;;;;;;;14.75;11.63;;;1.70;99.90;;;;;;5049510;28;20410;-82
2021/10/13 05:43:47;;;;;;;13.63;11.50;;;1.70;99.90;;;;;;5049956;28;20897;-82
2021/10/13 05:46:13;;;;;;;12.10;10.82;;;1.70;99.90;;;;;;5050397;28;20372;-82
2021/10/13 05:48:38;;;;;;;14.13;11.63;;;1.70;99.90;;;;;;5049842;28;20415;-83
2021/10/13 05:51:04;;;;;;;12.63;10.87;;;1.70;99.90;;;;;;5049663;28;20407;-82
2021/10/13 05:53:30;;;;;;;16.90;13.20;;;1.70;99.90;;;;;;5049669;28;20498;-82
2021/10/13 05:55:56;;;;;;;19.95;15.45;;;1.70;99.90;;;;;;5048426;28;20884;-81
2021/10/13 05:58:23;;;;;;;16.65;13.73;;;1.80;99.90;;;;;;5050112;28;20475;-82
2021/10/13 06:00:50;;;;;;;19.10;15.33;;;1.80;99.90;;;;;;5052340;28;20390;-82
2021/10/13 06:03:16;;;;;;;16.67;13.48;;;1.80;99.90;;;;;;5052337;28;20741;-82
2021/10/13 06:05:41;;;;;;;16.67;13.00;;;1.90;99.90;;;;;;5052881;28;20459;-82
2021/10/13 06:08:07;;;;;;;19.95;14.77;;;1.90;99.90;;;;;;5053789;28;20440;-82
2021/10/13 06:10:32;;;;;;;18.98;15.30;;;2.00;99.90;;;;;;5054124;28;20379;-82
2021/10/13 06:12:58;;;;;;;18.90;15.17;;;2.00;99.90;;;;;;5069030;28;20388;-81
2021/10/13 06:15:24;;;;;;;21.77;15.97;;;2.10;99.90;;;;;;5053063;28;20372;-82
2021/10/13 06:17:50;;;;;;;21.27;15.63;;;2.10;99.90;;;;;;5054076;28;20436;-82
2021/10/13 06:20:16;;;;;;;18.60;15.27;;;2.20;99.90;;;;;;5045318;28;20871;-82
2021/10/13 06:22:41;;;;;;;20.02;16.25;;;2.20;99.90;;;;;;5052405;28;20403;-82
2021/10/13 06:25:08;;;;;;;24.10;17.07;;;2.30;99.90;;;;;;5053824;28;20414;-82
2021/10/13 06:27:33;;;;;;;24.70;16.95;;;2.30;99.90;;;;;;5052307;28;20375;-82
2021/10/13 06:29:59;;;;;;;22.30;17.55;;;2.40;99.90;;;;;;5054694;28;20494;-82
2021/10/13 06:32:25;;;;;;;184.35;37.63;;;2.50;99.90;;;;;;5055531;28;20399;-82
2021/10/13 06:34:50;;;;;;;185.27;45.65;;;2.60;99.90;;;;;;5053066;28;20441;-82
2021/10/13 06:37:16;;;;;;;237.07;51.87;;;2.90;99.90;;;;;;5054162;28;20384;-83
2021/10/13 06:39:42;;;;;;;189.07;43.40;;;3.00;99.90;;;;;;5069999;28;20415;-82
2021/10/13 06:42:07;;;;;;;60.08;29.27;;;3.30;99.90;;;;;;5070514;28;20383;-82
2021/10/13 06:44:33;;;;;;;92.78;35.30;;;3.60;99.90;;;;;;5054810;28;20485;-83
2021/10/13 06:46:58;;;;;;;61.72;34.20;;;3.90;99.90;;;;;;5052649;28;20388;-82
2021/10/13 06:49:24;;;;;;;46.28;31.33;;;4.10;99.90;;;;;;5055654;28;20383;-83
2021/10/13 06:51:50;;;;;;;76.63;33.53;;;4.30;99.90;;;;;;5055055;28;20375;-83
2021/10/13 06:54:17;;;;;;;35.03;25.03;;;4.60;99.90;;;;;;5054616;28;20454;-83
2021/10/13 06:56:42;;;;;;;36.63;24.20;;;4.80;99.90;;;;;;5071905;28;20737;-83
2021/10/13 06:59:08;;;;;;;28.90;21.13;;;5.00;99.90;;;;;;5053120;28;20369;-82
2021/10/13 07:01:34;;;;;;;31.27;21.90;;;5.30;99.90;;;;;;5067498;28;20912;-83
2021/10/13 07:04:00;;;;;;;27.35;20.33;;;5.40;99.90;;;;;;5036524;28;20440;-83
2021/10/13 07:06:26;;;;;;;27.75;19.85;;;5.60;99.90;;;;;;5030927;28;20370;-83
2021/10/13 07:08:53;;;;;;;25.63;18.33;;;5.80;99.90;;;;;;5031965;28;20931;-83
2021/10/13 07:11:23;;;;;;;22.70;17.53;;;5.90;99.90;;;;;;5030417;28;20915;-82
2021/10/13 07:13:50;;;;;;;22.17;17.50;;;6.10;99.90;;;;;;5030484;28;20428;-83
2021/10/13 07:16:16;;;;;;;21.50;16.45;;;6.30;99.90;;;;;;5014756;28;20386;-83
2021/10/13 07:18:41;;;;;;;23.07;16.80;;;6.50;99.90;;;;;;5030665;28;20535;-83
2021/10/13 07:21:08;;;;;;;20.20;16.60;;;6.70;99.90;;;;;;5031945;28;20442;-83
2021/10/13 07:23:34;;;;;;;20.38;15.85;;;6.80;99.90;;;;;;5029840;28;20401;-83
2021/10/13 07:25:59;;;;;;;20.23;15.50;;;6.90;99.90;;;;;;5031297;28;20377;-82
2021/10/13 07:28:26;;;;;;;19.77;15.70;;;7.00;99.90;;;;;;5031486;28;20374;-83
2021/10/13 07:30:53;;;;;;;18.05;15.10;;;7.10;99.90;;;;;;5041313;28;20478;-83
2021/10/13 07:33:19;;;;;;;20.60;15.13;;;7.00;99.90;;;;;;5051259;28;20916;-83
2021/10/13 07:35:45;;;;;;;20.25;15.73;;;7.00;99.90;;;;;;5051010;28;20384;-83
2021/10/13 07:38:12;;;;;;;19.10;15.10;;;7.00;99.90;;;;;;5050118;28;20486;-83
2021/10/13 07:40:38;;;;;;;18.00;14.50;;;7.10;99.90;;;;;;5051527;28;20392;-83
2021/10/13 07:44:14;;;;;;;18.20;13.80;;;7.20;99.90;;;;;;5052345;28;20476;-85
2021/10/13 07:46:40;;;;;;;16.67;13.68;;;7.40;99.90;;;;;;5015914;28;20397;-84
2021/10/13 07:49:08;;;;;;;17.87;14.07;;;7.60;99.90;;;;;;5028295;28;20398;-84
2021/10/13 07:51:33;;;;;;;18.02;13.98;;;7.60;99.90;;;;;;5033477;28;20390;-84
2021/10/13 07:53:59;;;;;;;16.07;13.37;;;7.70;99.90;;;;;;5037162;28;20895;-84
2021/10/13 07:56:26;;;;;;;15.02;12.75;;;7.90;99.90;;;;;;5037736;28;20414;-84
2021/10/13 07:58:52;;;;;;;16.48;13.18;;;7.90;99.90;;;;;;5038830;28;20395;-84
2021/10/13 08:01:17;;;;;;;14.90;12.35;;;8.00;99.90;;;;;;5037646;28;20724;-84
2021/10/13 08:03:43;;;;;;;14.40;12.50;;;8.30;99.90;;;;;;5037838;28;20403;-84
2021/10/13 08:06:09;;;;;;;16.43;12.70;;;8.60;99.90;;;;;;5036312;28;20385;-84
2021/10/13 08:08:36;;;;;;;16.15;12.90;;;8.70;99.90;;;;;;5034397;28;20374;-84
2021/10/13 08:11:01;;;;;;;14.32;12.07;;;8.80;99.90;;;;;;5029302;28;20421;-84
2021/10/13 08:13:28;;;;;;;14.77;12.10;;;8.80;99.90;;;;;;5030778;28;20456;-84
2021/10/13 08:15:54;;;;;;;14.50;11.85;;;8.90;99.90;;;;;;5030466;28;20879;-84
2021/10/13 08:18:19;;;;;;;15.47;12.20;;;9.00;99.90;;;;;;5029123;28;20453;-84
2021/10/13 08:20:45;;;;;;;14.73;11.90;;;8.90;99.90;;;;;;5030110;28;20378;-84
2021/10/13 08:23:11;;;;;;;12.77;11.45;;;9.00;99.90;;;;;;5029224;28;20389;-83
2021/10/13 08:25:36;;;;;;;16.90;13.17;;;9.00;99.90;;;;;;5030167;28;20441;-83
2021/10/13 08:28:02;;;;;;;14.53;12.03;;;8.90;99.90;;;;;;5045726;28;20401;-83
2021/10/13 08:30:28;;;;;;;13.40;11.98;;;9.00;99.90;;;;;;5030496;28;20382;-82
2021/10/13 08:32:53;;;;;;;13.75;12.25;;;9.00;99.90;;;;;;5030395;28;20894;-83
2021/10/13 08:35:19;;;;;;;16.67;12.27;;;8.80;99.90;;;;;;5030083;28;20914;-83
2021/10/13 08:37:44;;;;;;;13.20;11.80;;;8.90;99.90;;;;;;5030231;28;20377;-83
2021/10/13 08:40:11;;;;;;;12.88;11.30;;;8.90;99.90;;;;;;5030028;28;20370;-83
2021/10/13 08:42:51;;;;;;;15.73;12.18;;;9.00;99.90;;;;;;5030353;28;20377;-83
2021/10/13 08:45:17;;;;;;;14.77;11.97;;;9.10;99.90;;;;;;5030018;28;20492;-83
2021/10/13 08:47:43;;;;;;;12.23;10.93;;;9.20;99.90;;;;;;5030292;28;20383;-82
2021/10/13 08:50:08;;;;;;;12.03;10.73;;;9.50;99.90;;;;;;5028819;28;20382;-82
2021/10/13 08:52:34;;;;;;;12.30;10.57;;;9.70;99.90;;;;;;5028608;28;20460;-83
2021/10/13 08:54:59;;;;;;;12.07;10.60;;;9.90;99.90;;;;;;5029761;28;20409;-82
2021/10/13 08:57:28;;;;;;;11.30;10.10;;;9.90;99.90;;;;;;5030019;28;20419;-83
2021/10/13 08:59:54;;;;;;;12.13;10.15;;;10.10;99.90;;;;;;5029804;28;20473;-82
2021/10/13 09:02:38;;;;;;;10.87;9.60;;;10.20;99.90;;;;;;5029609;28;20465;-83
2021/10/13 09:05:13;;;;;;;12.30;9.95;;;10.50;99.90;;;;;;5029704;28;20468;-83
2021/10/13 09:07:47;;;;;;;10.30;9.02;;;10.50;99.90;;;;;;5029558;28;20388;-83
2021/10/13 09:10:13;;;;;;;11.13;9.18;;;10.60;99.90;;;;;;5029694;28;20778;-84
2021/10/13 09:12:40;;;;;;;9.05;7.95;;;10.70;99.90;;;;;;5029714;28;20378;-83
2021/10/13 09:15:13;;;;;;;10.38;8.02;;;10.80;99.90;;;;;;5029425;28;20451;-82
2021/10/13 09:18:03;;;;;;;10.47;8.70;;;10.80;99.90;;;;;;5029422;28;20381;-83
2021/10/13 09:20:34;;;;;;;8.23;7.40;;;10.60;99.90;;;;;;5029407;28;20377;-82
2021/10/13 09:23:16;;;;;;;10.45;7.97;;;10.50;99.90;;;;;;5028141;28;20752;-83
2021/10/13 09:25:59;;;;;;;8.68;7.78;;;10.50;99.90;;;;;;5029150;28;20405;-82
2021/10/13 09:28:26;;;;;;;8.52;6.97;;;10.70;99.90;;;;;;5028124;28;20390;-83
2021/10/13 09:30:51;;;;;;;9.07;6.93;;;11.00;99.90;;;;;;5028014;28;20395;-82
2021/10/13 09:33:19;;;;;;;7.90;6.75;;;11.20;99.90;;;;;;5011534;28;20381;-83
2021/10/13 09:35:54;;;;;;;8.97;6.83;;;11.40;99.90;;;;;;5027498;28;20922;-84
2021/10/13 09:38:23;;;;;;;7.32;6.00;;;11.40;99.90;;;;;;5027908;28;20382;-83
2021/10/13 09:40:50;;;;;;;6.55;5.70;;;11.50;99.90;;;;;;5044980;28;20519;-82
2021/10/13 09:43:32;;;;;;;7.88;6.30;;;11.60;99.90;;;;;;5028078;28;20377;-84
2021/10/13 09:46:11;;;;;;;6.97;6.28;;;11.70;99.90;;;;;;5031595;28;24044;-84
2021/10/13 09:48:43;;;;;;;7.82;5.90;;;11.80;99.90;;;;;;5027564;28;20411;-83
2021/10/13 09:51:20;;;;;;;7.75;5.78;;;11.70;99.90;;;;;;5029401;28;20464;-84
2021/10/13 09:53:51;;;;;;;7.75;5.90;;;11.60;99.90;;;;;;5029213;28;20412;-83
2021/10/13 09:56:30;;;;;;;7.22;5.90;;;11.40;99.90;;;;;;5029364;28;20376;-83
2021/10/13 09:59:13;;;;;;;6.20;5.55;;;11.30;99.90;;;;;;5029316;28;20378;-83
2021/10/13 10:01:42;;;;;;;6.93;5.20;;;11.30;99.90;;;;;;5027690;28;20484;-82
2021/10/13 10:04:12;;;;;;;7.53;5.45;;;11.40;99.90;;;;;;5044358;28;20405;-83
2021/10/13 10:06:38;;;;;;;5.13;4.63;;;11.30;99.90;;;;;;5028010;28;20445;-83
2021/10/13 10:09:06;;;;;;;7.60;5.60;;;11.30;99.90;;;;;;5027722;28;21444;-83
2021/10/13 10:27:23;;;;;;;6.65;5.68;;;10.60;99.90;;;;;;5086381;28;20350;-84
2021/10/13 10:30:07;;;;;;;6.93;5.30;;;10.70;99.90;;;;;;5087642;28;20376;-82
2021/10/13 10:32:37;;;;;;;7.13;5.60;;;10.90;99.90;;;;;;5082357;28;20390;-82
2021/10/13 10:35:05;;;;;;;7.40;5.95;;;11.10;99.90;;;;;;5086330;28;20850;-83
2021/10/13 10:37:46;;;;;;;6.50;5.05;;;11.30;99.90;;;;;;5085332;28;20781;-82
2021/10/13 10:40:15;;;;;;;6.82;4.82;;;11.50;99.90;;;;;;5086275;28;20889;-83
2021/10/13 10:42:43;;;;;;;7.03;4.60;;;11.80;99.90;;;;;;5084184;28;20400;-83
2021/10/13 10:45:15;;;;;;;6.17;4.90;;;12.00;99.90;;;;;;5082434;28;20405;-82
2021/10/13 10:48:05;;;;;;;6.97;5.30;;;12.20;99.90;;;;;;5085309;28;20413;-83
2021/10/13 10:50:36;;;;;;;6.13;5.53;;;12.10;99.90;;;;;;5083069;28;20404;-81
2021/10/13 10:53:06;;;;;;;7.10;5.20;;;12.00;99.90;;;;;;5084216;28;20388;-82
2021/10/13 10:55:37;;;;;;;6.00;4.95;;;12.10;99.90;;;;;;5083381;28;20456;-82
2021/10/13 10:58:16;;;;;;;5.95;4.80;;;12.20;99.90;;;;;;5083581;28;20927;-82
2021/10/13 11:00:46;;;;;;;6.43;4.95;;;12.20;99.90;;;;;;5082922;28;20381;-82
2021/10/13 11:03:19;;;;;;;6.13;4.53;;;12.10;99.90;;;;;;5084575;28;20389;-82
2021/10/13 11:05:45;;;;;;;6.10;4.68;;;12.10;99.90;;;;;;5070499;28;20562;-83
2021/10/13 11:08:11;;;;;;;5.95;5.32;;;12.10;99.90;;;;;;5079542;28;20739;-82
2021/10/13 11:10:37;;;;;;;5.75;4.95;;;12.10;99.90;;;;;;5079614;28;20388;-83
2021/10/13 11:13:05;;;;;;;6.22;5.00;;;12.10;99.90;;;;;;5081959;28;20439;-81
2021/10/13 11:15:32;;;;;;;6.35;5.00;;;12.30;99.90;;;;;;5080264;28;20473;-81
2021/10/13 11:18:10;;;;;;;5.60;5.10;;;12.30;99.90;;;;;;5081544;28;20389;-82
2021/10/13 11:20:35;;;;;;;5.85;5.28;;;12.30;99.90;;;;;;5082249;28;20388;-82
2021/10/13 11:23:03;;;;;;;6.90;4.90;;;12.30;99.90;;;;;;5084343;28;20369;-82
2021/10/13 11:25:30;;;;;;;5.87;5.20;;;12.20;99.90;;;;;;5082424;28;20425;-81
2021/10/13 11:28:07;;;;;;;6.90;5.60;;;12.30;99.90;;;;;;5082244;28;20416;-81
2021/10/13 11:30:51;;;;;;;7.32;6.28;;;12.20;99.90;;;;;;5081816;28;20477;-81
2021/10/13 11:33:20;;;;;;;6.43;5.50;;;12.20;99.90;;;;;;5082106;28;20390;-82
2021/10/13 11:35:50;;;;;;;5.85;5.25;;;12.20;99.90;;;;;;5081379;28;20492;-82
2021/10/13 11:38:18;;;;;;;7.47;5.60;;;12.20;99.90;;;;;;5070558;28;20882;-82
2021/10/13 11:40:44;;;;;;;6.13;5.40;;;12.10;99.90;;;;;;5068750;28;20725;-82
2021/10/13 11:43:13;;;;;;;6.63;5.80;;;12.30;99.90;;;;;;5068172;28;20392;-83
2021/10/13 11:45:54;;;;;;;6.10;5.30;;;12.30;99.90;;;;;;5069111;28;20405;-83
2021/10/13 11:48:25;;;;;;;6.97;5.68;;;12.20;99.90;;;;;;5068382;28;20822;-82
2021/10/13 11:50:52;;;;;;;5.95;5.05;;;12.30;99.90;;;;;;5067036;28;20469;-82
2021/10/13 11:53:18;;;;;;;6.95;5.80;;;12.50;99.90;;;;;;5070561;28;20416;-81
2021/10/13 11:55:43;;;;;;;5.88;4.88;;;12.40;99.90;;;;;;5070630;28;20790;-83
2021/10/13 11:58:22;;;;;;;4.43;3.83;;;12.50;99.90;;;;;;5067501;28;20457;-81
2021/10/13 12:00:48;;;;;;;5.32;3.85;;;12.40;99.90;;;;;;5068491;28;20394;-85
2021/10/13 12:03:14;;;;;;;5.10;3.65;;;12.40;99.90;;;;;;5068843;28;20390;-82
2021/10/13 12:05:44;;;;;;;5.20;3.60;;;12.30;99.90;;;;;;5069567;28;20448;-83
2021/10/13 12:08:24;;;;;;;4.10;3.60;;;12.30;99.90;;;;;;5065141;28;20899;-83
2021/10/13 12:10:51;;;;;;;6.43;3.60;;;12.30;99.90;;;;;;5067593;28;20405;-83
2021/10/13 12:13:37;;;;;;;4.73;3.70;;;12.30;99.90;;;;;;5065369;28;21066;-82
2021/10/13 12:16:06;;;;;;;4.75;3.70;;;12.40;99.90;;;;;;5068417;28;20390;-81
2021/10/13 12:18:45;;;;;;;3.50;3.20;;;12.50;99.90;;;;;;5066818;28;20390;-81
2021/10/13 12:21:15;;;;;;;5.38;3.63;;;12.60;99.90;;;;;;5067260;28;20470;-83
2021/10/13 12:23:45;;;;;;;3.83;3.45;;;12.60;99.90;;;;;;5069016;28;20425;-83
2021/10/13 12:26:26;;;;;;;3.50;3.20;;;12.60;99.90;;;;;;5068108;28;20406;-80
2021/10/13 12:28:54;;;;;;;3.80;2.88;;;12.60;99.90;;;;;;5066594;28;20910;-86
2021/10/13 12:31:29;;;;;;;3.72;3.35;;;12.60;99.90;;;;;;5068117;28;20377;-81
2021/10/13 12:34:11;;;;;;;4.22;3.15;;;12.60;99.90;;;;;;5068055;28;20510;-83
2021/10/13 12:36:39;;;;;;;4.85;2.85;;;12.70;99.90;;;;;;5068394;28;21889;-82
2021/10/13 12:39:11;;;;;;;4.93;2.80;;;12.50;99.90;;;;;;5066603;28;20442;-82
2021/10/13 12:41:47;;;;;;;3.53;2.95;;;12.60;99.90;;;;;;5067930;28;20374;-81
2021/10/13 12:44:24;;;;;;;3.20;2.80;;;12.60;99.90;;;;;;5068452;28;20397;-82
2021/10/13 12:46:58;;;;;;;3.20;2.90;;;12.50;99.90;;;;;;5067476;28;20535;-82
2021/10/13 12:49:26;;;;;;;3.70;2.45;;;12.60;99.90;;;;;;5066237;28;20875;-82
2021/10/13 12:52:00;;;;;;;2.75;2.55;;;12.60;99.90;;;;;;5068540;28;20378;-82
2021/10/13 12:54:31;;;;;;;3.08;2.63;;;12.60;99.90;;;;;;5066805;28;20469;-82
2021/10/13 12:56:57;;;;;;;3.42;2.58;;;12.60;99.90;;;;;;5068398;28;20382;-83
2021/10/13 12:59:25;;;;;;;4.00;2.40;;;12.60;99.90;;;;;;5070781;28;20394;-82
2021/10/13 13:01:52;;;;;;;3.55;2.30;;;12.70;99.90;;;;;;5053173;28;20391;-82
2021/10/13 13:04:18;;;;;;;3.28;2.20;;;12.60;99.90;;;;;;5051593;28;20866;-83
2021/10/13 13:06:44;;;;;;;4.50;2.22;;;12.60;99.90;;;;;;5069465;28;20459;-82
2021/10/13 13:09:10;;;;;;;3.17;2.05;;;12.50;99.90;;;;;;5070682;28;20378;-83
2021/10/13 13:11:35;;;;;;;2.63;1.90;;;12.50;99.90;;;;;;5070316;28;20378;-82